sensor_id;sensor_type;location;lat;lon;timestamp;temperature;humidity
67598;DHT22;62026;39.230;9.122;2023-11-25T00:00:53;16.10;62.90
67598;DHT22;62026;39.230;9.122;2023-11-25T00:03:20;16.10;63.10
67598;DHT22;62026;39.230;9.122;2023-11-25T00:05:46;16.20;63.10
67598;DHT22;62026;39.230;9.122;2023-11-25T00:08:12;16.20;63.40
67598;DHT22;62026;39.230;9.122;2023-11-25T00:10:38;16.20;63.40
67598;DHT22;62026;39.230;9.122;2023-11-25T00:13:04;16.10;63.30
67598;DHT22;62026;39.230;9.122;2023-11-25T00:15:31;15.90;63.40
67598;DHT22;62026;39.230;9.122;2023-11-25T00:17:57;15.80;64.80
67598;DHT22;62026;39.230;9.122;2023-11-25T00:20:24;15.70;64.80
67598;DHT22;62026;39.230;9.122;2023-11-25T00:22:51;15.70;65.00
67598;DHT22;62026;39.230;9.122;2023-11-25T00:25:20;15.70;64.90
67598;DHT22;62026;39.230;9.122;2023-11-25T00:27:50;15.70;64.80
67598;DHT22;62026;39.230;9.122;2023-11-25T00:30:16;15.70;64.80
67598;DHT22;62026;39.230;9.122;2023-11-25T00:32:42;15.60;65.00
67598;DHT22;62026;39.230;9.122;2023-11-25T00:35:08;15.50;65.20
67598;DHT22;62026;39.230;9.122;2023-11-25T00:37:35;15.50;65.40
67598;DHT22;62026;39.230;9.122;2023-11-25T00:40:03;15.50;65.40
67598;DHT22;62026;39.230;9.122;2023-11-25T00:42:37;15.40;65.60
67598;DHT22;62026;39.230;9.122;2023-11-25T00:45:09;15.50;65.40
67598;DHT22;62026;39.230;9.122;2023-11-25T00:47:36;15.60;64.70
67598;DHT22;62026;39.230;9.122;2023-11-25T00:50:03;15.50;64.10
67598;DHT22;62026;39.230;9.122;2023-11-25T00:52:31;15.40;65.00
67598;DHT22;62026;39.230;9.122;2023-11-25T00:54:57;15.50;65.00
67598;DHT22;62026;39.230;9.122;2023-11-25T00:57:23;15.60;64.60
67598;DHT22;62026;39.230;9.122;2023-11-25T00:59:49;15.70;64.30
67598;DHT22;62026;39.230;9.122;2023-11-25T01:02:16;15.80;64.20
67598;DHT22;62026;39.230;9.122;2023-11-25T01:04:41;15.80;64.20
67598;DHT22;62026;39.230;9.122;2023-11-25T01:07:09;15.80;64.50
67598;DHT22;62026;39.230;9.122;2023-11-25T01:09:35;15.80;64.40
67598;DHT22;62026;39.230;9.122;2023-11-25T01:12:02;15.90;64.30
67598;DHT22;62026;39.230;9.122;2023-11-25T01:14:28;15.90;64.30
67598;DHT22;62026;39.230;9.122;2023-11-25T01:16:57;15.80;64.20
67598;DHT22;62026;39.230;9.122;2023-11-25T01:19:24;15.80;64.20
67598;DHT22;62026;39.230;9.122;2023-11-25T01:21:49;15.80;64.20
67598;DHT22;62026;39.230;9.122;2023-11-25T01:24:15;15.90;64.20
67598;DHT22;62026;39.230;9.122;2023-11-25T01:26:43;15.80;64.00
67598;DHT22;62026;39.230;9.122;2023-11-25T01:29:09;15.90;64.00
67598;DHT22;62026;39.230;9.122;2023-11-25T01:31:35;15.90;63.70
67598;DHT22;62026;39.230;9.122;2023-11-25T01:34:01;15.90;63.70
67598;DHT22;62026;39.230;9.122;2023-11-25T01:36:28;15.90;63.40
67598;DHT22;62026;39.230;9.122;2023-11-25T01:38:54;15.90;63.20
67598;DHT22;62026;39.230;9.122;2023-11-25T01:41:20;15.90;63.20
67598;DHT22;62026;39.230;9.122;2023-11-25T01:43:46;15.90;63.20
67598;DHT22;62026;39.230;9.122;2023-11-25T01:46:26;15.90;63.20
67598;DHT22;62026;39.230;9.122;2023-11-25T01:49:03;15.90;63.00
67598;DHT22;62026;39.230;9.122;2023-11-25T01:51:35;15.90;63.10
67598;DHT22;62026;39.230;9.122;2023-11-25T01:54:04;15.90;63.00
67598;DHT22;62026;39.230;9.122;2023-11-25T01:56:33;15.90;62.90
67598;DHT22;62026;39.230;9.122;2023-11-25T01:59:00;15.90;62.70
67598;DHT22;62026;39.230;9.122;2023-11-25T02:01:30;15.90;62.70
67598;DHT22;62026;39.230;9.122;2023-11-25T02:03:56;15.80;62.50
67598;DHT22;62026;39.230;9.122;2023-11-25T02:06:22;15.90;62.60
67598;DHT22;62026;39.230;9.122;2023-11-25T02:08:52;15.80;62.40
67598;DHT22;62026;39.230;9.122;2023-11-25T02:11:18;15.80;62.30
67598;DHT22;62026;39.230;9.122;2023-11-25T02:13:44;15.80;62.50
67598;DHT22;62026;39.230;9.122;2023-11-25T02:16:11;15.80;62.70
67598;DHT22;62026;39.230;9.122;2023-11-25T02:18:38;15.80;62.70
67598;DHT22;62026;39.230;9.122;2023-11-25T02:21:05;15.80;62.50
67598;DHT22;62026;39.230;9.122;2023-11-25T02:23:31;15.80;62.50
67598;DHT22;62026;39.230;9.122;2023-11-25T02:25:57;15.80;62.40
67598;DHT22;62026;39.230;9.122;2023-11-25T02:28:24;15.70;62.40
67598;DHT22;62026;39.230;9.122;2023-11-25T02:30:51;15.70;62.30
67598;DHT22;62026;39.230;9.122;2023-11-25T02:33:18;15.80;62.30
67598;DHT22;62026;39.230;9.122;2023-11-25T02:35:45;15.80;62.10
67598;DHT22;62026;39.230;9.122;2023-11-25T02:38:12;15.80;61.80
67598;DHT22;62026;39.230;9.122;2023-11-25T02:40:41;15.80;61.70
67598;DHT22;62026;39.230;9.122;2023-11-25T02:43:11;15.80;61.70
67598;DHT22;62026;39.230;9.122;2023-11-25T02:45:38;15.80;61.50
67598;DHT22;62026;39.230;9.122;2023-11-25T02:48:05;15.80;61.50
67598;DHT22;62026;39.230;9.122;2023-11-25T02:50:32;15.80;61.50
67598;DHT22;62026;39.230;9.122;2023-11-25T02:53:01;15.80;61.50
67598;DHT22;62026;39.230;9.122;2023-11-25T02:55:30;15.80;61.60
67598;DHT22;62026;39.230;9.122;2023-11-25T02:57:56;15.80;61.80
67598;DHT22;62026;39.230;9.122;2023-11-25T03:00:22;15.80;61.90
67598;DHT22;62026;39.230;9.122;2023-11-25T03:02:48;15.80;61.90
67598;DHT22;62026;39.230;9.122;2023-11-25T03:05:17;15.80;61.80
67598;DHT22;62026;39.230;9.122;2023-11-25T03:07:43;15.80;61.60
67598;DHT22;62026;39.230;9.122;2023-11-25T03:10:10;15.80;61.10
67598;DHT22;62026;39.230;9.122;2023-11-25T03:12:39;15.80;60.60
67598;DHT22;62026;39.230;9.122;2023-11-25T03:15:08;15.70;60.40
67598;DHT22;62026;39.230;9.122;2023-11-25T03:17:34;15.70;60.50
67598;DHT22;62026;39.230;9.122;2023-11-25T03:20:00;15.70;60.20
67598;DHT22;62026;39.230;9.122;2023-11-25T03:22:26;15.70;60.00
67598;DHT22;62026;39.230;9.122;2023-11-25T03:24:52;15.70;60.00
67598;DHT22;62026;39.230;9.122;2023-11-25T03:27:18;15.70;59.80
67598;DHT22;62026;39.230;9.122;2023-11-25T03:29:44;15.70;59.90
67598;DHT22;62026;39.230;9.122;2023-11-25T03:32:12;15.60;59.70
67598;DHT22;62026;39.230;9.122;2023-11-25T03:34:40;15.60;59.60
67598;DHT22;62026;39.230;9.122;2023-11-25T03:37:07;15.60;59.90
67598;DHT22;62026;39.230;9.122;2023-11-25T03:39:34;15.60;59.40
67598;DHT22;62026;39.230;9.122;2023-11-25T03:42:02;15.50;59.30
67598;DHT22;62026;39.230;9.122;2023-11-25T03:44:32;15.50;59.20
67598;DHT22;62026;39.230;9.122;2023-11-25T03:46:58;15.50;59.30
67598;DHT22;62026;39.230;9.122;2023-11-25T03:49:24;15.50;59.10
67598;DHT22;62026;39.230;9.122;2023-11-25T03:51:50;15.40;58.90
67598;DHT22;62026;39.230;9.122;2023-11-25T03:54:16;15.40;59.00
67598;DHT22;62026;39.230;9.122;2023-11-25T03:56:42;15.40;59.00
67598;DHT22;62026;39.230;9.122;2023-11-25T03:59:08;15.40;59.10
67598;DHT22;62026;39.230;9.122;2023-11-25T04:01:34;15.30;59.10
67598;DHT22;62026;39.230;9.122;2023-11-25T04:04:01;15.30;58.90
67598;DHT22;62026;39.230;9.122;2023-11-25T04:06:30;15.30;59.30
67598;DHT22;62026;39.230;9.122;2023-11-25T04:08:56;15.30;58.30
67598;DHT22;62026;39.230;9.122;2023-11-25T04:11:22;15.30;58.10
67598;DHT22;62026;39.230;9.122;2023-11-25T04:13:48;15.30;57.60
67598;DHT22;62026;39.230;9.122;2023-11-25T04:16:16;15.20;57.40
67598;DHT22;62026;39.230;9.122;2023-11-25T04:18:43;15.20;57.20
67598;DHT22;62026;39.230;9.122;2023-11-25T04:21:09;15.20;56.70
67598;DHT22;62026;39.230;9.122;2023-11-25T04:23:35;15.20;55.90
67598;DHT22;62026;39.230;9.122;2023-11-25T04:26:01;15.20;55.70
67598;DHT22;62026;39.230;9.122;2023-11-25T04:28:29;15.20;55.20
67598;DHT22;62026;39.230;9.122;2023-11-25T04:30:55;15.20;55.50
67598;DHT22;62026;39.230;9.122;2023-11-25T04:33:21;15.10;55.40
67598;DHT22;62026;39.230;9.122;2023-11-25T04:35:47;15.10;55.10
67598;DHT22;62026;39.230;9.122;2023-11-25T04:38:13;15.10;55.20
67598;DHT22;62026;39.230;9.122;2023-11-25T04:40:39;15.10;55.30
67598;DHT22;62026;39.230;9.122;2023-11-25T04:43:05;15.10;55.60
67598;DHT22;62026;39.230;9.122;2023-11-25T04:45:31;15.10;54.90
67598;DHT22;62026;39.230;9.122;2023-11-25T04:47:57;15.10;54.80
67598;DHT22;62026;39.230;9.122;2023-11-25T04:50:23;15.10;55.00
67598;DHT22;62026;39.230;9.122;2023-11-25T04:52:52;15.00;55.40
67598;DHT22;62026;39.230;9.122;2023-11-25T04:55:18;15.00;55.60
67598;DHT22;62026;39.230;9.122;2023-11-25T04:57:47;15.00;57.20
67598;DHT22;62026;39.230;9.122;2023-11-25T05:00:13;14.90;57.90
67598;DHT22;62026;39.230;9.122;2023-11-25T05:02:41;14.90;58.00
67598;DHT22;62026;39.230;9.122;2023-11-25T05:05:08;14.90;58.00
67598;DHT22;62026;39.230;9.122;2023-11-25T05:07:35;14.90;58.00
67598;DHT22;62026;39.230;9.122;2023-11-25T05:10:02;14.90;57.80
67598;DHT22;62026;39.230;9.122;2023-11-25T05:12:32;14.90;57.80
67598;DHT22;62026;39.230;9.122;2023-11-25T05:14:58;14.90;57.80
67598;DHT22;62026;39.230;9.122;2023-11-25T05:17:25;14.90;57.50
67598;DHT22;62026;39.230;9.122;2023-11-25T05:19:52;14.90;57.70
67598;DHT22;62026;39.230;9.122;2023-11-25T05:22:18;14.90;58.30
67598;DHT22;62026;39.230;9.122;2023-11-25T05:24:46;14.90;58.50
67598;DHT22;62026;39.230;9.122;2023-11-25T05:27:12;14.80;58.80
67598;DHT22;62026;39.230;9.122;2023-11-25T05:29:39;14.80;59.30
67598;DHT22;62026;39.230;9.122;2023-11-25T05:32:05;14.80;59.60
67598;DHT22;62026;39.230;9.122;2023-11-25T05:34:35;14.80;59.80
67598;DHT22;62026;39.230;9.122;2023-11-25T05:37:01;14.80;59.80
67598;DHT22;62026;39.230;9.122;2023-11-25T05:39:28;14.70;60.10
67598;DHT22;62026;39.230;9.122;2023-11-25T05:41:54;14.70;60.30
67598;DHT22;62026;39.230;9.122;2023-11-25T05:44:20;14.70;60.40
67598;DHT22;62026;39.230;9.122;2023-11-25T05:46:47;14.70;60.60
67598;DHT22;62026;39.230;9.122;2023-11-25T05:49:13;14.70;60.60
67598;DHT22;62026;39.230;9.122;2023-11-25T05:51:39;14.70;60.50
67598;DHT22;62026;39.230;9.122;2023-11-25T05:54:08;14.70;60.30
67598;DHT22;62026;39.230;9.122;2023-11-25T05:56:42;14.70;60.00
67598;DHT22;62026;39.230;9.122;2023-11-25T05:59:08;14.70;59.70
67598;DHT22;62026;39.230;9.122;2023-11-25T06:01:36;14.70;60.20
67598;DHT22;62026;39.230;9.122;2023-11-25T06:04:02;14.70;61.10
67598;DHT22;62026;39.230;9.122;2023-11-25T06:06:28;14.70;61.50
67598;DHT22;62026;39.230;9.122;2023-11-25T06:08:54;14.70;61.90
67598;DHT22;62026;39.230;9.122;2023-11-25T06:11:22;14.70;62.10
67598;DHT22;62026;39.230;9.122;2023-11-25T06:13:52;14.70;61.70
67598;DHT22;62026;39.230;9.122;2023-11-25T06:16:20;14.70;61.60
67598;DHT22;62026;39.230;9.122;2023-11-25T06:18:46;14.70;61.50
67598;DHT22;62026;39.230;9.122;2023-11-25T06:21:12;14.60;61.40
67598;DHT22;62026;39.230;9.122;2023-11-25T06:23:39;14.70;62.30
67598;DHT22;62026;39.230;9.122;2023-11-25T06:26:05;14.60;63.00
67598;DHT22;62026;39.230;9.122;2023-11-25T06:28:46;14.60;63.10
67598;DHT22;62026;39.230;9.122;2023-11-25T06:31:14;14.60;62.80
67598;DHT22;62026;39.230;9.122;2023-11-25T06:33:41;14.60;62.50
67598;DHT22;62026;39.230;9.122;2023-11-25T06:36:11;14.60;62.60
67598;DHT22;62026;39.230;9.122;2023-11-25T06:38:37;14.60;62.60
67598;DHT22;62026;39.230;9.122;2023-11-25T06:41:04;14.70;62.50
67598;DHT22;62026;39.230;9.122;2023-11-25T06:43:30;14.70;62.60
67598;DHT22;62026;39.230;9.122;2023-11-25T06:45:56;14.70;62.60
67598;DHT22;62026;39.230;9.122;2023-11-25T06:48:22;14.70;62.40
67598;DHT22;62026;39.230;9.122;2023-11-25T06:50:49;14.70;62.50
67598;DHT22;62026;39.230;9.122;2023-11-25T06:53:18;14.80;62.60
67598;DHT22;62026;39.230;9.122;2023-11-25T06:55:44;14.80;62.60
67598;DHT22;62026;39.230;9.122;2023-11-25T06:58:14;14.80;62.60
67598;DHT22;62026;39.230;9.122;2023-11-25T07:00:41;14.80;62.60
67598;DHT22;62026;39.230;9.122;2023-11-25T07:03:07;14.80;62.50
67598;DHT22;62026;39.230;9.122;2023-11-25T07:05:43;14.80;62.70
67598;DHT22;62026;39.230;9.122;2023-11-25T07:08:09;14.80;62.50
67598;DHT22;62026;39.230;9.122;2023-11-25T07:10:35;14.80;62.60
67598;DHT22;62026;39.230;9.122;2023-11-25T07:13:02;14.80;62.70
67598;DHT22;62026;39.230;9.122;2023-11-25T07:15:29;14.80;62.70
67598;DHT22;62026;39.230;9.122;2023-11-25T07:17:56;14.80;62.70
67598;DHT22;62026;39.230;9.122;2023-11-25T07:20:22;14.80;62.80
67598;DHT22;62026;39.230;9.122;2023-11-25T07:22:48;14.90;62.70
67598;DHT22;62026;39.230;9.122;2023-11-25T07:25:15;14.90;62.80
67598;DHT22;62026;39.230;9.122;2023-11-25T07:27:42;14.90;62.90
67598;DHT22;62026;39.230;9.122;2023-11-25T07:30:14;14.90;63.00
67598;DHT22;62026;39.230;9.122;2023-11-25T07:32:41;14.90;63.10
67598;DHT22;62026;39.230;9.122;2023-11-25T07:35:09;14.90;63.40
67598;DHT22;62026;39.230;9.122;2023-11-25T07:37:36;14.90;63.40
67598;DHT22;62026;39.230;9.122;2023-11-25T07:40:04;14.90;63.50
67598;DHT22;62026;39.230;9.122;2023-11-25T07:42:44;14.90;63.60
67598;DHT22;62026;39.230;9.122;2023-11-25T07:45:17;14.90;63.60
67598;DHT22;62026;39.230;9.122;2023-11-25T07:47:43;14.90;63.80
67598;DHT22;62026;39.230;9.122;2023-11-25T07:50:12;15.00;63.90
67598;DHT22;62026;39.230;9.122;2023-11-25T07:52:38;15.00;64.30
67598;DHT22;62026;39.230;9.122;2023-11-25T07:55:05;15.00;64.20
67598;DHT22;62026;39.230;9.122;2023-11-25T07:57:32;15.00;64.50
67598;DHT22;62026;39.230;9.122;2023-11-25T07:59:58;15.00;64.70
67598;DHT22;62026;39.230;9.122;2023-11-25T08:02:24;15.00;65.20
67598;DHT22;62026;39.230;9.122;2023-11-25T08:04:51;15.10;65.40
67598;DHT22;62026;39.230;9.122;2023-11-25T08:07:18;15.10;65.50
67598;DHT22;62026;39.230;9.122;2023-11-25T08:09:44;15.10;65.50
67598;DHT22;62026;39.230;9.122;2023-11-25T08:12:10;15.20;65.40
67598;DHT22;62026;39.230;9.122;2023-11-25T08:14:36;15.20;65.30
67598;DHT22;62026;39.230;9.122;2023-11-25T08:17:02;15.30;65.10
67598;DHT22;62026;39.230;9.122;2023-11-25T08:19:28;15.40;65.00
67598;DHT22;62026;39.230;9.122;2023-11-25T08:21:54;15.40;64.80
67598;DHT22;62026;39.230;9.122;2023-11-25T08:24:20;15.80;63.60
67598;DHT22;62026;39.230;9.122;2023-11-25T08:26:46;16.20;62.30
67598;DHT22;62026;39.230;9.122;2023-11-25T08:29:12;16.50;61.00
67598;DHT22;62026;39.230;9.122;2023-11-25T08:31:39;16.60;60.40
67598;DHT22;62026;39.230;9.122;2023-11-25T08:34:05;16.60;60.00
67598;DHT22;62026;39.230;9.122;2023-11-25T08:36:37;16.70;59.30
67598;DHT22;62026;39.230;9.122;2023-11-25T08:39:13;16.70;59.20
67598;DHT22;62026;39.230;9.122;2023-11-25T08:41:42;16.80;59.00
67598;DHT22;62026;39.230;9.122;2023-11-25T08:44:09;17.10;58.10
67598;DHT22;62026;39.230;9.122;2023-11-25T08:46:42;17.30;57.50
67598;DHT22;62026;39.230;9.122;2023-11-25T08:49:11;17.40;57.20
67598;DHT22;62026;39.230;9.122;2023-11-25T08:51:44;17.30;57.00
67598;DHT22;62026;39.230;9.122;2023-11-25T08:54:15;17.00;57.60
67598;DHT22;62026;39.230;9.122;2023-11-25T08:56:46;17.10;57.60
67598;DHT22;62026;39.230;9.122;2023-11-25T08:59:15;17.20;57.50
67598;DHT22;62026;39.230;9.122;2023-11-25T09:01:46;17.50;56.70
67598;DHT22;62026;39.230;9.122;2023-11-25T09:04:14;17.60;56.20
67598;DHT22;62026;39.230;9.122;2023-11-25T09:06:48;17.70;56.10
67598;DHT22;62026;39.230;9.122;2023-11-25T09:09:17;17.90;55.60
67598;DHT22;62026;39.230;9.122;2023-11-25T09:11:45;18.10;54.80
67598;DHT22;62026;39.230;9.122;2023-11-25T09:14:13;18.30;54.50
67598;DHT22;62026;39.230;9.122;2023-11-25T09:16:42;18.50;54.00
67598;DHT22;62026;39.230;9.122;2023-11-25T09:19:09;18.50;53.50
67598;DHT22;62026;39.230;9.122;2023-11-25T09:21:35;18.50;53.30
67598;DHT22;62026;39.230;9.122;2023-11-25T09:24:01;18.70;53.10
67598;DHT22;62026;39.230;9.122;2023-11-25T09:26:27;18.90;52.90
67598;DHT22;62026;39.230;9.122;2023-11-25T09:28:53;19.10;52.30
67598;DHT22;62026;39.230;9.122;2023-11-25T09:31:21;19.30;51.90
67598;DHT22;62026;39.230;9.122;2023-11-25T09:33:49;19.20;51.90
67598;DHT22;62026;39.230;9.122;2023-11-25T09:36:17;19.10;51.90
67598;DHT22;62026;39.230;9.122;2023-11-25T09:38:43;19.30;51.80
67598;DHT22;62026;39.230;9.122;2023-11-25T09:41:10;19.50;51.60
67598;DHT22;62026;39.230;9.122;2023-11-25T09:43:36;19.90;51.10
67598;DHT22;62026;39.230;9.122;2023-11-25T09:46:03;20.10;50.50
67598;DHT22;62026;39.230;9.122;2023-11-25T09:48:29;20.30;50.00
67598;DHT22;62026;39.230;9.122;2023-11-25T09:50:56;20.40;49.80
67598;DHT22;62026;39.230;9.122;2023-11-25T09:53:28;20.10;50.00
67598;DHT22;62026;39.230;9.122;2023-11-25T09:56:01;20.10;49.80
67598;DHT22;62026;39.230;9.122;2023-11-25T09:58:38;20.30;49.80
67598;DHT22;62026;39.230;9.122;2023-11-25T10:01:04;20.10;49.70
67598;DHT22;62026;39.230;9.122;2023-11-25T10:03:41;19.80;50.10
67598;DHT22;62026;39.230;9.122;2023-11-25T10:06:09;19.80;49.40
67598;DHT22;62026;39.230;9.122;2023-11-25T10:08:35;20.10;49.50
67598;DHT22;62026;39.230;9.122;2023-11-25T10:13:41;20.40;47.50
67598;DHT22;62026;39.230;9.122;2023-11-25T10:16:09;20.40;46.70
67598;DHT22;62026;39.230;9.122;2023-11-25T10:18:36;20.00;46.10
67598;DHT22;62026;39.230;9.122;2023-11-25T10:21:06;19.80;46.40
67598;DHT22;62026;39.230;9.122;2023-11-25T10:23:34;19.70;46.70
67598;DHT22;62026;39.230;9.122;2023-11-25T10:26:02;19.70;47.10
67598;DHT22;62026;39.230;9.122;2023-11-25T10:28:31;19.70;47.10
67598;DHT22;62026;39.230;9.122;2023-11-25T10:30:59;19.70;47.20
67598;DHT22;62026;39.230;9.122;2023-11-25T10:33:27;19.60;45.40
67598;DHT22;62026;39.230;9.122;2023-11-25T10:35:54;19.40;45.00
67598;DHT22;62026;39.230;9.122;2023-11-25T10:38:21;19.20;43.60
67598;DHT22;62026;39.230;9.122;2023-11-25T10:41:00;19.20;42.30
67598;DHT22;62026;39.230;9.122;2023-11-25T10:43:27;19.10;39.70
67598;DHT22;62026;39.230;9.122;2023-11-25T10:46:02;19.10;38.90
67598;DHT22;62026;39.230;9.122;2023-11-25T10:48:38;19.10;38.20
67598;DHT22;62026;39.230;9.122;2023-11-25T10:51:05;19.10;37.10
67598;DHT22;62026;39.230;9.122;2023-11-25T10:53:38;19.20;37.40
67598;DHT22;62026;39.230;9.122;2023-11-25T10:56:07;18.90;37.10
67598;DHT22;62026;39.230;9.122;2023-11-25T10:58:34;18.70;37.10
67598;DHT22;62026;39.230;9.122;2023-11-25T11:01:01;18.50;37.60
67598;DHT22;62026;39.230;9.122;2023-11-25T11:04:03;18.40;37.50
67598;DHT22;62026;39.230;9.122;2023-11-25T11:06:48;18.30;37.30
67598;DHT22;62026;39.230;9.122;2023-11-25T11:09:20;18.10;37.60
67598;DHT22;62026;39.230;9.122;2023-11-25T11:11:57;18.10;37.30
67598;DHT22;62026;39.230;9.122;2023-11-25T11:14:45;18.20;36.30
67598;DHT22;62026;39.230;9.122;2023-11-25T11:17:25;18.30;36.50
67598;DHT22;62026;39.230;9.122;2023-11-25T11:20:02;18.40;36.60
67598;DHT22;62026;39.230;9.122;2023-11-25T11:22:41;18.40;35.50
67598;DHT22;62026;39.230;9.122;2023-11-25T11:28:20;18.30;35.40
67598;DHT22;62026;39.230;9.122;2023-11-25T11:33:45;17.90;35.90
67598;DHT22;62026;39.230;9.122;2023-11-25T11:36:21;17.80;35.60
67598;DHT22;62026;39.230;9.122;2023-11-25T11:38:58;17.70;35.50
67598;DHT22;62026;39.230;9.122;2023-11-25T11:41:25;17.70;36.50
67598;DHT22;62026;39.230;9.122;2023-11-25T11:44:08;17.90;36.50
67598;DHT22;62026;39.230;9.122;2023-11-25T11:46:37;17.90;36.00
67598;DHT22;62026;39.230;9.122;2023-11-25T11:49:08;17.90;35.90
67598;DHT22;62026;39.230;9.122;2023-11-25T11:51:35;17.90;36.00
67598;DHT22;62026;39.230;9.122;2023-11-25T11:57:07;17.90;35.70
67598;DHT22;62026;39.230;9.122;2023-11-25T12:00:02;17.80;35.60
67598;DHT22;62026;39.230;9.122;2023-11-25T12:02:47;17.80;34.80
67598;DHT22;62026;39.230;9.122;2023-11-25T12:05:14;17.80;35.40
67598;DHT22;62026;39.230;9.122;2023-11-25T12:07:40;17.80;34.80
67598;DHT22;62026;39.230;9.122;2023-11-25T12:10:06;17.80;33.60
67598;DHT22;62026;39.230;9.122;2023-11-25T12:12:40;17.70;34.40
67598;DHT22;62026;39.230;9.122;2023-11-25T12:15:07;17.80;33.80
67598;DHT22;62026;39.230;9.122;2023-11-25T12:17:34;17.80;34.10
67598;DHT22;62026;39.230;9.122;2023-11-25T12:20:00;17.70;33.60
67598;DHT22;62026;39.230;9.122;2023-11-25T12:22:26;17.70;33.00
67598;DHT22;62026;39.230;9.122;2023-11-25T12:24:53;17.70;33.00
67598;DHT22;62026;39.230;9.122;2023-11-25T12:27:20;17.60;32.30
67598;DHT22;62026;39.230;9.122;2023-11-25T12:29:49;17.60;32.30
67598;DHT22;62026;39.230;9.122;2023-11-25T12:32:15;17.60;32.50
67598;DHT22;62026;39.230;9.122;2023-11-25T12:34:41;17.60;32.80
67598;DHT22;62026;39.230;9.122;2023-11-25T12:37:07;17.60;32.40
67598;DHT22;62026;39.230;9.122;2023-11-25T12:39:38;17.60;32.00
67598;DHT22;62026;39.230;9.122;2023-11-25T12:42:05;17.60;31.60
67598;DHT22;62026;39.230;9.122;2023-11-25T12:44:50;17.60;31.50
67598;DHT22;62026;39.230;9.122;2023-11-25T12:47:16;17.50;31.90
67598;DHT22;62026;39.230;9.122;2023-11-25T12:49:42;17.50;32.30
67598;DHT22;62026;39.230;9.122;2023-11-25T12:52:20;17.60;32.40
67598;DHT22;62026;39.230;9.122;2023-11-25T12:54:48;17.50;31.90
67598;DHT22;62026;39.230;9.122;2023-11-25T12:57:20;17.50;31.90
67598;DHT22;62026;39.230;9.122;2023-11-25T12:59:51;17.50;32.20
67598;DHT22;62026;39.230;9.122;2023-11-25T13:02:17;17.50;31.90
67598;DHT22;62026;39.230;9.122;2023-11-25T13:04:47;17.50;31.90
67598;DHT22;62026;39.230;9.122;2023-11-25T13:07:34;17.50;32.60
67598;DHT22;62026;39.230;9.122;2023-11-25T13:10:00;17.50;32.10
67598;DHT22;62026;39.230;9.122;2023-11-25T13:12:28;17.40;32.00
67598;DHT22;62026;39.230;9.122;2023-11-25T13:14:55;17.40;31.90
67598;DHT22;62026;39.230;9.122;2023-11-25T13:17:21;17.40;32.00
67598;DHT22;62026;39.230;9.122;2023-11-25T13:19:47;17.40;31.70
67598;DHT22;62026;39.230;9.122;2023-11-25T13:22:14;17.40;31.80
67598;DHT22;62026;39.230;9.122;2023-11-25T13:24:44;17.40;32.50
67598;DHT22;62026;39.230;9.122;2023-11-25T13:27:11;17.40;32.90
67598;DHT22;62026;39.230;9.122;2023-11-25T13:29:38;17.40;33.80
67598;DHT22;62026;39.230;9.122;2023-11-25T13:32:05;17.30;33.90
67598;DHT22;62026;39.230;9.122;2023-11-25T13:34:31;17.30;34.70
67598;DHT22;62026;39.230;9.122;2023-11-25T13:36:57;17.30;34.60
67598;DHT22;62026;39.230;9.122;2023-11-25T13:39:23;17.30;34.60
67598;DHT22;62026;39.230;9.122;2023-11-25T13:41:49;17.30;34.00
67598;DHT22;62026;39.230;9.122;2023-11-25T13:44:16;17.20;33.80
67598;DHT22;62026;39.230;9.122;2023-11-25T13:46:42;17.20;33.70
67598;DHT22;62026;39.230;9.122;2023-11-25T13:49:08;17.20;34.40
67598;DHT22;62026;39.230;9.122;2023-11-25T13:51:35;17.20;35.10
67598;DHT22;62026;39.230;9.122;2023-11-25T13:54:01;17.20;34.50
67598;DHT22;62026;39.230;9.122;2023-11-25T13:56:28;17.20;35.20
67598;DHT22;62026;39.230;9.122;2023-11-25T13:58:54;17.20;35.70
67598;DHT22;62026;39.230;9.122;2023-11-25T14:01:21;17.20;35.70
67598;DHT22;62026;39.230;9.122;2023-11-25T14:03:47;17.20;34.80
67598;DHT22;62026;39.230;9.122;2023-11-25T14:06:14;17.10;34.90
67598;DHT22;62026;39.230;9.122;2023-11-25T14:08:40;17.10;33.80
67598;DHT22;62026;39.230;9.122;2023-11-25T14:11:07;17.10;32.70
67598;DHT22;62026;39.230;9.122;2023-11-25T14:13:34;17.00;32.40
67598;DHT22;62026;39.230;9.122;2023-11-25T14:16:00;17.00;32.80
67598;DHT22;62026;39.230;9.122;2023-11-25T14:18:27;17.00;34.10
67598;DHT22;62026;39.230;9.122;2023-11-25T14:20:53;17.00;34.70
67598;DHT22;62026;39.230;9.122;2023-11-25T14:23:19;17.00;34.10
67598;DHT22;62026;39.230;9.122;2023-11-25T14:25:45;17.00;33.50
67598;DHT22;62026;39.230;9.122;2023-11-25T14:28:11;17.00;33.40
67598;DHT22;62026;39.230;9.122;2023-11-25T14:30:39;16.90;33.60
67598;DHT22;62026;39.230;9.122;2023-11-25T14:33:05;17.00;33.40
67598;DHT22;62026;39.230;9.122;2023-11-25T14:35:34;16.90;33.00
67598;DHT22;62026;39.230;9.122;2023-11-25T14:38:01;16.90;33.00
67598;DHT22;62026;39.230;9.122;2023-11-25T14:40:29;16.80;33.00
67598;DHT22;62026;39.230;9.122;2023-11-25T14:42:57;16.80;33.40
67598;DHT22;62026;39.230;9.122;2023-11-25T14:45:23;16.80;33.10
67598;DHT22;62026;39.230;9.122;2023-11-25T14:47:49;16.80;33.90
67598;DHT22;62026;39.230;9.122;2023-11-25T14:50:15;16.80;33.80
67598;DHT22;62026;39.230;9.122;2023-11-25T14:52:41;16.70;34.50
67598;DHT22;62026;39.230;9.122;2023-11-25T14:55:07;16.70;33.90
67598;DHT22;62026;39.230;9.122;2023-11-25T14:57:34;16.70;34.30
67598;DHT22;62026;39.230;9.122;2023-11-25T15:00:03;16.70;33.70
67598;DHT22;62026;39.230;9.122;2023-11-25T15:02:30;16.70;33.70
67598;DHT22;62026;39.230;9.122;2023-11-25T15:04:57;16.70;33.80
67598;DHT22;62026;39.230;9.122;2023-11-25T15:07:23;16.60;34.60
67598;DHT22;62026;39.230;9.122;2023-11-25T15:09:49;16.60;34.40
67598;DHT22;62026;39.230;9.122;2023-11-25T15:12:15;16.60;34.40
67598;DHT22;62026;39.230;9.122;2023-11-25T15:14:42;16.50;34.50
67598;DHT22;62026;39.230;9.122;2023-11-25T15:17:08;16.50;34.30
67598;DHT22;62026;39.230;9.122;2023-11-25T15:19:35;16.50;34.10
67598;DHT22;62026;39.230;9.122;2023-11-25T15:22:06;16.40;34.70
67598;DHT22;62026;39.230;9.122;2023-11-25T15:24:36;16.40;35.30
67598;DHT22;62026;39.230;9.122;2023-11-25T15:27:03;16.40;35.70
67598;DHT22;62026;39.230;9.122;2023-11-25T15:29:31;16.40;35.50
67598;DHT22;62026;39.230;9.122;2023-11-25T15:31:57;16.30;36.00
67598;DHT22;62026;39.230;9.122;2023-11-25T15:34:23;16.30;35.50
67598;DHT22;62026;39.230;9.122;2023-11-25T15:36:49;16.30;36.10
67598;DHT22;62026;39.230;9.122;2023-11-25T15:39:18;16.30;36.10
67598;DHT22;62026;39.230;9.122;2023-11-25T15:41:45;16.30;36.40
67598;DHT22;62026;39.230;9.122;2023-11-25T15:44:12;16.20;36.10
67598;DHT22;62026;39.230;9.122;2023-11-25T15:46:38;16.10;36.50